Time;durP1;ratioP1;P1;durP2;ratioP2;P2;SDS_P1;SDS_P2;PMS_P1;PMS_P2;Temp;Humidity;BMP_temperature;BMP_pressure;BME280_temperature;BME280_humidity;BME280_pressure;Samples;Min_cycle;Max_cycle;Signal;HPM_P1;HPM_P2
2023/06/21 00:01:38;;;;;;;1.45;0.60;;;;;;;26.83;29.25;101634.31;4994969;28;20444;-57
2023/06/21 00:04:10;;;;;;;1.65;0.70;;;;;;;26.83;28.30;101634.31;4995155;28;20046;-57
2023/06/21 00:06:38;;;;;;;4.00;0.98;;;;;;;26.85;27.99;101629.34;4995406;28;20084;-56
2023/06/21 00:09:05;;;;;;;3.40;1.00;;;;;;;26.66;28.15;101626.59;4995056;28;20034;-56
2023/06/21 00:11:32;;;;;;;1.58;0.70;;;;;;;26.90;28.67;101626.53;4994958;28;20023;-57
2023/06/21 00:13:59;;;;;;;2.63;0.80;;;;;;;26.56;29.56;101619.31;4995287;28;20030;-57
2023/06/21 00:16:25;;;;;;;3.63;0.80;;;;;;;26.69;30.04;101612.25;4995068;28;20154;-56
2023/06/21 00:18:51;;;;;;;1.30;0.77;;;;;;;26.65;30.11;101613.97;4994600;28;20038;-56
2023/06/21 00:21:17;;;;;;;2.33;0.73;;;;;;;26.52;29.14;101606.44;4994634;28;20081;-56
2023/06/21 00:23:44;;;;;;;5.72;0.88;;;;;;;26.32;28.83;101613.00;4994746;28;20037;-57
2023/06/21 00:26:11;;;;;;;4.70;1.08;;;;;;;26.24;28.11;101602.66;4994626;28;20045;-57
2023/06/21 00:28:37;;;;;;;3.35;1.00;;;;;;;26.26;27.90;101597.69;4994636;28;20485;-57
2023/06/21 00:31:08;;;;;;;2.47;1.23;;;;;;;26.02;29.29;101601.25;4994527;28;20037;-57
2023/06/21 00:33:34;;;;;;;2.95;0.70;;;;;;;26.10;28.96;101594.34;4994594;28;20544;-57
2023/06/21 00:36:01;;;;;;;4.25;1.15;;;;;;;25.97;28.37;101593.09;4994591;28;20084;-57
2023/06/21 00:38:27;;;;;;;1.80;0.90;;;;;;;26.02;28.66;101590.28;4995181;28;20022;-57
2023/06/21 00:40:53;;;;;;;2.47;1.05;;;;;;;25.94;28.52;101581.91;4994117;28;20042;-57
2023/06/21 00:43:20;;;;;;;4.20;1.20;;;;;;;25.94;29.50;101592.88;4994546;28;20041;-57
2023/06/21 00:45:48;;;;;;;1.92;0.70;;;;;;;25.82;28.98;101579.56;4994543;28;20379;-58
2023/06/21 00:48:14;;;;;;;4.18;1.10;;;;;;;25.91;29.67;101572.31;4994349;28;20053;-57
2023/06/21 00:50:41;;;;;;;3.25;0.90;;;;;;;25.72;30.14;101568.66;4994795;28;20026;-57
2023/06/21 00:53:09;;;;;;;4.13;0.82;;;;;;;25.66;30.18;101576.13;4994148;28;20438;-57
2023/06/21 00:55:36;;;;;;;2.67;1.30;;;;;;;25.69;29.61;101567.31;4994170;28;20026;-57
2023/06/21 00:58:03;;;;;;;3.63;1.00;;;;;;;25.50;28.87;101575.44;4994347;28;20463;-58
2023/06/21 01:00:29;;;;;;;2.83;1.00;;;;;;;24.70;30.04;101580.41;4993904;28;20066;-58
2023/06/21 01:02:56;;;;;;;3.40;1.10;;;;;;;24.38;30.33;101581.69;4993952;28;20336;-57
2023/06/21 01:05:25;;;;;;;3.63;1.27;;;;;;;24.14;30.74;101584.19;4994099;28;20027;-57
2023/06/21 01:08:08;;;;;;;5.30;1.90;;;;;;;23.87;31.21;101576.34;4993990;28;20469;-58
2023/06/21 01:10:48;;;;;;;4.50;1.50;;;;;;;23.37;30.85;101583.47;4994084;28;20045;-57
2023/06/21 01:13:38;;;;;;;2.95;1.08;;;;;;;23.61;31.44;101582.94;4994129;28;20376;-57
2023/06/21 01:16:13;;;;;;;4.20;1.08;;;;;;;23.38;31.85;101582.41;4993937;28;20029;-58
2023/06/21 01:18:45;;;;;;;3.90;1.30;;;;;;;23.44;30.15;101594.97;4994330;28;20109;-57
2023/06/21 01:21:19;;;;;;;5.28;1.38;;;;;;;23.23;30.89;101581.59;4993999;28;20023;-57
2023/06/21 01:24:09;;;;;;;3.83;1.27;;;;;;;23.24;31.28;101580.50;4994097;28;20030;-57
2023/06/21 01:26:49;;;;;;;2.83;1.27;;;;;;;23.04;30.62;101582.13;4993716;28;20038;-57
2023/06/21 01:29:21;;;;;;;2.10;1.02;;;;;;;22.82;31.26;101585.06;4993996;28;20038;-57
2023/06/21 01:31:52;;;;;;;4.88;1.00;;;;;;;23.01;30.18;101582.66;4993707;28;20085;-58
2023/06/21 01:34:19;;;;;;;4.28;1.33;;;;;;;22.64;30.43;101588.28;4994035;28;20035;-57
2023/06/21 01:36:45;;;;;;;5.05;1.13;;;;;;;22.55;29.50;101588.00;4993927;28;20050;-57
2023/06/21 01:39:12;;;;;;;2.70;0.82;;;;;;;22.56;29.40;101588.81;4994158;28;20022;-57
2023/06/21 01:41:38;;;;;;;3.03;1.20;;;;;;;22.50;29.83;101596.16;4993343;28;20046;-57
2023/06/21 01:44:09;;;;;;;2.67;1.10;;;;;;;22.17;29.56;101589.19;4993972;28;20051;-57
2023/06/21 01:46:36;;;;;;;5.20;1.20;;;;;;;22.02;30.70;101589.91;4993618;28;20427;-58
2023/06/21 01:49:06;;;;;;;4.22;1.50;;;;;;;21.73;31.29;101588.63;4993546;28;20030;-57
2023/06/21 01:51:35;;;;;;;4.70;2.15;;;;;;;21.82;32.58;101593.34;4993392;28;20490;-57
2023/06/21 01:54:02;;;;;;;3.33;1.20;;;;;;;21.91;31.45;101592.84;4993481;28;20039;-58
2023/06/21 01:56:29;;;;;;;8.38;1.58;;;;;;;21.90;32.56;101599.38;4993603;28;20022;-57
2023/06/21 01:58:55;;;;;;;3.83;1.27;;;;;;;22.20;32.10;101596.84;4993454;28;20033;-58
2023/06/21 02:01:23;;;;;;;3.47;1.30;;;;;;;22.64;31.86;101599.19;4993237;28;20114;-58
2023/06/21 02:03:54;;;;;;;4.95;1.70;;;;;;;22.86;30.76;101591.59;4993462;28;20026;-58
2023/06/21 02:06:26;;;;;;;3.28;2.10;;;;;;;23.07;30.47;101597.13;4993430;28;20030;-57
2023/06/21 02:08:53;;;;;;;4.18;1.42;;;;;;;22.90;30.66;101603.66;4993387;28;20022;-57
2023/06/21 02:11:21;;;;;;;5.88;1.92;;;;;;;22.89;31.42;101591.09;4993578;28;20363;-57
2023/06/21 02:13:52;;;;;;;6.57;1.80;;;;;;;22.70;30.89;101592.66;4993257;28;20033;-57
2023/06/21 02:16:28;;;;;;;4.60;1.73;;;;;;;22.84;31.33;101593.78;4993609;28;20105;-57
2023/06/21 02:18:55;;;;;;;4.65;2.13;;;;;;;23.26;31.34;101589.22;4993339;28;20487;-57
2023/06/21 02:21:22;;;;;;;6.85;2.00;;;;;;;23.00;31.36;101591.13;4993083;28;20026;-57
2023/06/21 02:23:49;;;;;;;4.68;1.67;;;;;;;23.10;31.33;101596.59;4993113;28;20031;-57
2023/06/21 02:26:17;;;;;;;3.30;1.60;;;;;;;23.49;30.94;101593.34;4993062;28;20023;-57
2023/06/21 02:28:44;;;;;;;7.05;2.35;;;;;;;23.65;31.11;101593.09;4993226;28;20026;-55
2023/06/21 02:31:10;;;;;;;4.13;1.60;;;;;;;23.40;31.32;101599.34;4993101;28;20483;-55
2023/06/21 02:33:37;;;;;;;4.05;1.70;;;;;;;22.79;31.75;101596.50;4993311;28;20088;-56
2023/06/21 02:36:03;;;;;;;5.25;1.65;;;;;;;22.75;32.26;101598.13;4993206;28;20169;-56
2023/06/21 02:38:31;;;;;;;6.10;2.13;;;;;;;22.65;33.15;101592.63;4993018;28;20114;-56
2023/06/21 02:40:58;;;;;;;5.18;1.88;;;;;;;23.05;32.51;101593.88;4993056;28;20053;-57
2023/06/21 02:43:24;;;;;;;6.85;2.08;;;;;;;22.91;32.64;101599.84;4993183;28;20108;-57
2023/06/21 02:45:50;;;;;;;7.57;1.98;;;;;;;22.78;32.39;101600.34;4993870;28;20030;-56
2023/06/21 02:48:16;;;;;;;5.15;2.13;;;;;;;23.06;32.15;101595.50;4996438;28;20033;-57
2023/06/21 02:50:43;;;;;;;6.13;2.15;;;;;;;22.73;32.39;101597.59;4996435;28;20026;-57
2023/06/21 02:53:09;;;;;;;4.82;1.98;;;;;;;22.34;32.91;101599.91;4996739;28;20518;-57
2023/06/21 02:55:35;;;;;;;5.75;1.65;;;;;;;22.09;33.49;101590.47;4996668;28;20041;-57
2023/06/21 02:58:01;;;;;;;5.57;2.20;;;;;;;21.48;35.71;101603.69;4996221;28;20093;-57
2023/06/21 03:00:31;;;;;;;6.25;2.28;;;;;;;21.21;36.48;101608.31;4996494;28;20546;-56
2023/06/21 03:03:02;;;;;;;10.07;2.22;;;;;;;20.93;36.95;101601.25;4996217;28;20076;-56
2023/06/21 03:05:33;;;;;;;5.20;2.45;;;;;;;20.73;38.06;101604.59;4996573;28;20523;-56
2023/06/21 03:08:00;;;;;;;7.28;2.35;;;;;;;20.19;38.55;101610.69;4996429;28;20105;-56
2023/06/21 03:10:27;;;;;;;4.95;2.00;;;;;;;20.34;38.78;101615.53;4996072;28;20023;-56
2023/06/21 03:12:53;;;;;;;7.93;2.08;;;;;;;20.13;39.25;101614.41;4997016;28;20027;-57
2023/06/21 03:15:19;;;;;;;6.38;1.95;;;;;;;19.87;39.65;101623.28;4996392;28;20026;-56
2023/06/21 03:17:45;;;;;;;6.90;2.35;;;;;;;19.71;40.53;101616.78;4996266;28;20489;-57
2023/06/21 03:20:13;;;;;;;6.25;1.95;;;;;;;19.83;40.25;101614.81;4996073;28;20117;-56
2023/06/21 03:22:43;;;;;;;7.32;2.28;;;;;;;19.56;40.67;101613.81;4995863;28;20454;-56
2023/06/21 03:25:11;;;;;;;5.13;2.40;;;;;;;19.11;42.19;101620.94;4995854;28;20030;-57
2023/06/21 03:27:37;;;;;;;5.78;1.92;;;;;;;18.86;42.57;101615.84;4995805;28;20019;-56
2023/06/21 03:30:11;;;;;;;7.13;2.30;;;;;;;19.04;42.17;101617.50;4995626;28;20031;-56
2023/06/21 03:32:48;;;;;;;7.22;2.65;;;;;;;18.58;43.35;101616.59;4995969;28;20050;-56
2023/06/21 03:35:18;;;;;;;10.63;2.75;;;;;;;18.31;44.71;101615.50;4995754;28;20030;-56
2023/06/21 03:37:50;;;;;;;7.60;2.20;;;;;;;18.22;44.76;101616.94;5010658;28;20357;-56
2023/06/21 03:40:16;;;;;;;8.15;2.95;;;;;;;17.99;45.62;101612.34;4995261;28;20046;-56
2023/06/21 03:42:43;;;;;;;13.30;3.05;;;;;;;17.82;46.40;101623.06;4995463;28;20050;-56
2023/06/21 03:45:10;;;;;;;4.82;1.90;;;;;;;17.69;46.60;101615.97;4995427;28;20023;-57
2023/06/21 03:47:42;;;;;;;8.20;2.67;;;;;;;17.68;47.07;101620.56;4995483;28;20360;-56
2023/06/21 03:50:09;;;;;;;8.45;2.75;;;;;;;17.30;47.59;101615.56;4995378;28;20030;-56
2023/06/21 03:52:35;;;;;;;6.68;2.22;;;;;;;17.35;47.67;101615.69;4995316;28;20026;-56
2023/06/21 03:55:02;;;;;;;8.57;2.50;;;;;;;17.13;48.24;101609.97;4995323;28;20121;-56
2023/06/21 03:57:29;;;;;;;7.78;2.40;;;;;;;17.23;47.96;101617.53;4994779;28;20379;-56
2023/06/21 03:59:55;;;;;;;8.30;2.88;;;;;;;17.28;48.31;101630.38;4995539;28;20402;-56
2023/06/21 04:02:22;;;;;;;6.25;2.30;;;;;;;17.26;48.52;101629.78;4995041;28;20375;-56
2023/06/21 04:04:49;;;;;;;7.72;2.75;;;;;;;17.01;49.39;101619.94;4995094;28;20053;-56
2023/06/21 04:07:18;;;;;;;9.85;3.33;;;;;;;17.01;49.44;101629.94;4995133;28;20019;-56
2023/06/21 04:09:45;;;;;;;10.57;3.20;;;;;;;17.18;48.98;101622.81;4994980;28;20125;-56
2023/06/21 04:12:11;;;;;;;7.75;2.40;;;;;;;17.04;49.58;101622.16;4995032;28;20062;-56
2023/06/21 04:14:38;;;;;;;8.05;2.53;;;;;;;16.91;49.73;101633.19;4994891;28;20089;-56
2023/06/21 04:17:05;;;;;;;5.80;2.42;;;;;;;16.82;50.42;101634.53;4995106;28;20513;-56
2023/06/21 04:19:31;;;;;;;11.00;2.97;;;;;;;16.80;51.00;101632.06;4994701;28;20110;-57
2023/06/21 04:21:57;;;;;;;5.43;2.20;;;;;;;16.89;50.45;101629.91;4994780;28;20030;-56
2023/06/21 04:24:24;;;;;;;5.82;2.15;;;;;;;16.93;50.59;101630.25;4994912;28;20097;-56
2023/06/21 04:26:50;;;;;;;11.40;2.60;;;;;;;16.75;50.93;101640.03;4994557;28;20089;-56
2023/06/21 04:29:20;;;;;;;6.95;2.75;;;;;;;16.76;51.21;101635.47;4994518;28;20423;-56
2023/06/21 04:31:47;;;;;;;7.25;2.80;;;;;;;16.81;51.28;101636.44;4994588;28;20030;-57
2023/06/21 04:34:13;;;;;;;8.18;2.47;;;;;;;16.81;50.99;101644.53;4994801;28;20483;-56
2023/06/21 04:36:39;;;;;;;11.05;3.22;;;;;;;16.56;51.73;101639.22;4994487;28;20352;-56
2023/06/21 04:39:05;;;;;;;11.77;3.53;;;;;;;16.64;52.41;101633.50;4994280;28;20050;-57
2023/06/21 04:41:31;;;;;;;9.52;3.30;;;;;;;16.48;53.32;101639.50;4994020;28;20081;-57
2023/06/21 04:43:58;;;;;;;10.02;3.05;;;;;;;16.42;53.78;101637.72;4994448;28;20050;-56
2023/06/21 04:46:27;;;;;;;9.88;3.33;;;;;;;16.47;53.61;101635.16;4994452;28;20483;-56
2023/06/21 04:48:54;;;;;;;9.07;3.40;;;;;;;16.52;53.77;101640.72;4993982;28;20117;-57
2023/06/21 04:51:20;;;;;;;10.35;3.10;;;;;;;16.41;53.67;101644.16;4994051;28;20027;-57
2023/06/21 04:53:48;;;;;;;9.45;3.80;;;;;;;16.30;53.78;101640.34;4993985;28;20113;-57
2023/06/21 04:56:15;;;;;;;9.10;2.80;;;;;;;16.21;54.27;101647.09;4994490;28;20144;-56
2023/06/21 04:58:41;;;;;;;10.15;2.88;;;;;;;16.30;53.56;101645.75;4994021;28;20105;-56
2023/06/21 05:01:08;;;;;;;10.27;3.15;;;;;;;16.22;53.95;101658.72;5009012;28;20030;-57
2023/06/21 05:03:34;;;;;;;7.43;2.97;;;;;;;16.35;53.47;101645.06;4993877;28;20038;-57
2023/06/21 05:06:01;;;;;;;5.60;2.47;;;;;;;16.43;52.96;101646.63;4995045;28;20041;-57
2023/06/21 05:08:28;;;;;;;9.63;3.08;;;;;;;16.26;53.43;101649.09;4993269;28;20379;-56
2023/06/21 05:10:54;;;;;;;9.00;2.70;;;;;;;16.14;53.86;101650.91;4993815;28;20065;-56
2023/06/21 05:13:21;;;;;;;5.45;2.28;;;;;;;16.10;53.66;101654.06;4994353;28;20033;-56
2023/06/21 05:15:47;;;;;;;4.93;2.38;;;;;;;16.18;53.63;101657.50;4993750;28;20459;-56
2023/06/21 05:18:13;;;;;;;8.60;2.60;;;;;;;16.25;53.79;101642.88;4994175;28;20105;-56
2023/06/21 05:20:39;;;;;;;7.53;2.97;;;;;;;16.28;53.54;101642.44;4994139;28;20034;-56
2023/06/21 05:23:06;;;;;;;7.45;2.90;;;;;;;16.24;53.70;101656.63;4993635;28;20030;-57
2023/06/21 05:25:32;;;;;;;11.25;3.17;;;;;;;15.90;54.34;101653.41;4993602;28;20026;-57
2023/06/21 05:27:58;;;;;;;7.60;3.40;;;;;;;15.73;55.04;101653.16;4993657;28;20118;-57
2023/06/21 05:30:24;;;;;;;6.90;2.65;;;;;;;15.79;54.38;101649.56;4993654;28;20030;-57
2023/06/21 05:32:50;;;;;;;11.30;3.05;;;;;;;15.40;55.47;101657.94;4994333;28;20031;-57
2023/06/21 05:35:17;;;;;;;10.20;3.47;;;;;;;15.52;54.78;101650.78;4993851;28;20026;-57
2023/06/21 05:37:43;;;;;;;5.93;2.85;;;;;;;15.24;55.36;101651.19;4993780;28;20030;-57
2023/06/21 05:40:10;;;;;;;4.72;2.38;;;;;;;15.29;55.54;101654.06;4993284;28;20610;-57
2023/06/21 05:42:37;;;;;;;6.72;2.58;;;;;;;15.43;55.14;101644.00;4993438;28;20026;-57
2023/06/21 05:45:04;;;;;;;9.90;3.20;;;;;;;15.41;54.71;101656.88;4993569;28;20030;-57
2023/06/21 05:47:31;;;;;;;7.63;3.22;;;;;;;15.00;56.22;101650.09;4993483;28;20101;-57
2023/06/21 05:49:57;;;;;;;8.43;3.33;;;;;;;15.02;55.62;101648.81;4994149;28;20058;-57
2023/06/21 05:52:23;;;;;;;7.85;3.22;;;;;;;15.24;55.72;101652.00;4993536;28;20530;-57
2023/06/21 05:54:49;;;;;;;9.30;3.13;;;;;;;15.17;56.89;101655.78;4993328;28;20034;-57
2023/06/21 05:57:16;;;;;;;6.18;2.50;;;;;;;15.18;56.96;101649.34;4993692;28;20031;-57
2023/06/21 05:59:43;;;;;;;3.90;2.22;;;;;;;15.09;57.19;101646.06;4993441;28;20031;-57
2023/06/21 06:02:09;;;;;;;4.22;2.20;;;;;;;15.10;57.24;101654.97;4993086;28;20030;-57
2023/06/21 06:04:37;;;;;;;8.35;2.92;;;;;;;15.04;57.86;101645.88;4993319;28;20031;-57
2023/06/21 06:07:04;;;;;;;6.38;2.58;;;;;;;15.01;58.40;101652.56;4993256;28;20077;-57
2023/06/21 06:09:30;;;;;;;5.55;2.13;;;;;;;15.02;58.51;101654.19;4993250;28;20030;-58
2023/06/21 06:11:57;;;;;;;7.68;2.83;;;;;;;14.93;58.05;101651.97;4993190;28;20483;-57
2023/06/21 06:14:26;;;;;;;9.48;3.22;;;;;;;15.00;57.22;101644.69;4993352;28;20054;-57
2023/06/21 06:16:52;;;;;;;9.80;3.28;;;;;;;14.49;58.10;101643.66;4993206;28;20050;-57
2023/06/21 06:19:19;;;;;;;8.20;3.38;;;;;;;14.36;58.40;101654.44;4993323;28;20041;-57
2023/06/21 06:21:45;;;;;;;8.85;2.78;;;;;;;14.45;57.79;101647.78;4996964;28;20501;-57
2023/06/21 06:24:11;;;;;;;9.02;2.78;;;;;;;14.48;57.67;101639.28;4996875;28;20080;-57
2023/06/21 06:26:37;;;;;;;6.10;2.83;;;;;;;14.37;58.08;101642.59;4997000;28;20038;-57
2023/06/21 06:29:03;;;;;;;5.60;2.42;;;;;;;14.20;58.51;101646.78;4996919;28;20022;-57
2023/06/21 06:31:30;;;;;;;8.90;2.55;;;;;;;14.40;57.80;101655.66;4997161;28;20033;-57
2023/06/21 06:33:57;;;;;;;5.50;2.55;;;;;;;14.51;57.29;101646.97;4996881;28;20033;-57
2023/06/21 06:36:23;;;;;;;7.43;2.85;;;;;;;14.53;57.50;101644.03;4997021;28;20027;-57
2023/06/21 06:38:50;;;;;;;9.93;4.38;;;;;;;14.21;58.03;101645.75;4996806;28;20023;-57
2023/06/21 06:41:17;;;;;;;7.93;2.72;;;;;;;14.31;58.06;101646.16;4996453;28;20042;-57
2023/06/21 06:43:44;;;;;;;11.00;3.38;;;;;;;14.31;58.51;101640.75;4996573;28;20037;-57
2023/06/21 06:46:14;;;;;;;7.78;2.95;;;;;;;14.22;59.65;101648.25;4996484;28;20050;-57
2023/06/21 06:48:40;;;;;;;7.10;2.90;;;;;;;14.44;59.86;101643.44;4996762;28;20546;-57
2023/06/21 06:51:06;;;;;;;10.02;3.38;;;;;;;14.37;60.84;101645.31;4996486;28;20034;-57
2023/06/21 06:53:33;;;;;;;12.15;2.97;;;;;;;14.29;62.05;101642.84;4996419;28;20030;-57
2023/06/21 06:55:59;;;;;;;7.72;3.42;;;;;;;14.11;63.13;101645.38;4996338;28;20063;-57
2023/06/21 06:58:27;;;;;;;7.22;2.95;;;;;;;14.22;63.33;101639.34;4996325;28;20054;-57
2023/06/21 07:00:54;;;;;;;9.73;3.22;;;;;;;14.21;63.69;101651.13;4996222;28;20494;-57
2023/06/21 07:03:20;;;;;;;15.65;3.78;;;;;;;14.26;63.78;101643.25;4996168;28;20041;-57
2023/06/21 07:05:47;;;;;;;14.70;4.10;;;;;;;14.26;64.39;101643.25;4996119;28;20110;-57
2023/06/21 07:08:14;;;;;;;11.82;3.90;;;;;;;14.17;65.03;101644.53;4996096;28;20029;-57
2023/06/21 07:10:40;;;;;;;13.23;3.78;;;;;;;14.21;64.92;101648.44;4996045;28;20027;-56
2023/06/21 07:13:07;;;;;;;15.55;4.40;;;;;;;14.25;65.15;101647.00;4996036;28;20027;-57
2023/06/21 07:15:33;;;;;;;17.90;4.32;;;;;;;14.27;65.31;101653.03;4996097;28;20030;-57
2023/06/21 07:18:00;;;;;;;12.60;4.32;;;;;;;14.22;65.47;101655.50;4996026;28;20541;-57
2023/06/21 07:20:26;;;;;;;14.63;4.30;;;;;;;14.21;65.53;101659.22;4995874;28;20026;-57
2023/06/21 07:22:52;;;;;;;11.98;3.92;;;;;;;14.12;66.12;101653.25;4995861;28;20077;-57
2023/06/21 07:25:19;;;;;;;12.52;3.88;;;;;;;14.05;66.30;101646.19;4996119;28;20030;-57
2023/06/21 07:27:46;;;;;;;12.23;3.88;;;;;;;14.16;65.88;101643.72;4995720;28;20026;-57
2023/06/21 07:30:13;;;;;;;7.95;3.45;;;;;;;14.36;65.34;101650.91;4995627;28;20066;-57
2023/06/21 07:32:39;;;;;;;10.93;4.45;;;;;;;14.11;66.05;101642.69;4994934;28;20463;-57
2023/06/21 07:35:06;;;;;;;9.45;3.97;;;;;;;14.06;66.39;101640.63;4995732;28;20113;-57
2023/06/21 07:37:33;;;;;;;15.32;4.45;;;;;;;14.03;66.21;101641.03;4995549;28;20364;-57
2023/06/21 07:40:00;;;;;;;10.50;4.15;;;;;;;13.99;67.05;101629.00;4995374;28;20039;-57
2023/06/21 07:42:26;;;;;;;11.40;4.03;;;;;;;13.97;67.23;101628.41;4995495;28;20471;-57
2023/06/21 07:44:54;;;;;;;10.70;4.28;;;;;;;13.89;67.78;101632.16;4995484;28;20038;-57
2023/06/21 07:47:22;;;;;;;13.27;4.60;;;;;;;14.15;67.08;101628.56;4995370;28;20037;-57
2023/06/21 07:49:48;;;;;;;12.63;4.25;;;;;;;14.04;67.49;101623.00;4995365;28;20366;-57
2023/06/21 07:52:15;;;;;;;12.25;4.40;;;;;;;14.11;67.55;101627.38;4995694;28;20072;-57
2023/06/21 07:54:48;;;;;;;14.40;3.92;;;;;;;14.13;67.49;101627.97;4995357;28;20022;-57
2023/06/21 07:57:16;;;;;;;10.70;4.10;;;;;;;14.04;67.68;101621.13;4995659;28;20395;-57
2023/06/21 07:59:42;;;;;;;10.30;4.05;;;;;;;13.93;68.13;101622.59;4995106;28;20349;-57
2023/06/21 08:02:17;;;;;;;12.98;4.32;;;;;;;13.97;68.21;101623.84;4995081;28;20026;-57
2023/06/21 08:04:44;;;;;;;8.77;3.45;;;;;;;14.10;68.10;101616.78;4995486;28;20022;-57
2023/06/21 08:07:11;;;;;;;14.73;4.53;;;;;;;13.78;69.38;101616.63;4995129;28;20032;-57
2023/06/21 08:09:37;;;;;;;13.68;4.10;;;;;;;13.91;69.06;101616.63;4994936;28;20018;-57
2023/06/21 08:12:03;;;;;;;12.63;4.18;;;;;;;13.98;68.59;101612.03;4994997;28;20034;-57
2023/06/21 08:14:30;;;;;;;10.57;4.25;;;;;;;13.99;68.84;101610.19;4994911;28;20418;-57
2023/06/21 08:16:56;;;;;;;9.52;3.60;;;;;;;14.08;68.44;101608.94;4994996;28;20030;-56
2023/06/21 08:19:22;;;;;;;15.15;4.78;;;;;;;13.86;69.45;101610.22;4995187;28;20041;-57
2023/06/21 08:21:48;;;;;;;15.10;4.55;;;;;;;13.88;69.47;101606.28;4995003;28;20084;-56
2023/06/21 08:24:15;;;;;;;11.55;4.35;;;;;;;13.88;69.33;101606.28;4995015;28;20030;-56
2023/06/21 08:26:41;;;;;;;14.25;5.03;;;;;;;13.65;70.41;101600.50;5009780;28;20042;-57
2023/06/21 08:29:07;;;;;;;14.73;4.72;;;;;;;13.76;70.17;101605.25;4994653;28;20105;-56
2023/06/21 08:31:33;;;;;;;11.45;3.95;;;;;;;13.76;70.25;101604.41;4994561;28;20120;-56
2023/06/21 08:33:59;;;;;;;11.23;3.75;;;;;;;13.70;70.35;101609.59;4994850;28;20026;-55
2023/06/21 08:36:26;;;;;;;14.65;5.05;;;;;;;13.82;70.31;101601.72;4994468;28;20026;-55
2023/06/21 08:38:52;;;;;;;17.77;5.18;;;;;;;13.71;70.67;101602.34;4994355;28;20029;-56
2023/06/21 08:41:19;;;;;;;16.67;4.97;;;;;;;13.63;71.30;101597.19;4993055;28;20511;-54
2023/06/21 08:43:45;;;;;;;14.90;4.60;;;;;;;13.78;71.05;101592.44;4994330;28;20030;-56
2023/06/21 08:46:11;;;;;;;18.08;4.85;;;;;;;13.54;71.93;101598.41;4994594;28;20033;-56
2023/06/21 08:48:41;;;;;;;14.25;4.70;;;;;;;13.69;71.47;101597.19;4994238;28;20014;-56
2023/06/21 08:51:07;;;;;;;10.75;4.40;;;;;;;13.77;71.20;101595.31;4994299;28;20026;-56
2023/06/21 08:54:09;;;;;;;15.18;4.45;;;;;;;13.46;72.66;101594.09;5009368;28;20037;-56
2023/06/21 08:56:46;;;;;;;16.08;4.57;;;;;;;13.50;72.62;101591.81;4990251;28;20042;-57
2023/06/21 08:59:33;;;;;;;22.05;5.07;;;;;;;13.39;73.22;101583.34;4994159;28;20455;-56
2023/06/21 09:02:08;;;;;;;12.95;4.60;;;;;;;13.41;73.21;101586.63;4994064;28;20117;-56
2023/06/21 09:04:39;;;;;;;;;;;;;;;13.54;72.59;101585.78;4994483;28;20034;-55
2023/06/21 09:07:08;;;;;;;14.82;5.30;;;;;;;13.30;73.66;101581.88;4994029;28;19968;-55
2023/06/21 09:09:34;;;;;;;15.98;4.28;;;;;;;13.33;73.76;101578.78;4993971;28;20030;-55
2023/06/21 09:12:00;;;;;;;15.88;4.95;;;;;;;13.40;73.66;101571.53;4993840;28;20054;-55
2023/06/21 09:14:31;;;;;;;12.68;4.60;;;;;;;13.36;73.89;101570.28;4994173;28;20033;-56
2023/06/21 09:17:00;;;;;;;14.02;5.10;;;;;;;13.31;73.89;101571.94;4993927;28;20022;-56
2023/06/21 09:19:27;;;;;;;13.07;4.30;;;;;;;13.22;74.53;101571.34;4993933;28;20022;-56
2023/06/21 09:22:02;;;;;;;13.25;4.68;;;;;;;13.26;74.41;101567.19;4993975;28;20101;-56
2023/06/21 09:24:28;;;;;;;19.45;5.20;;;;;;;13.13;74.95;101567.97;4994191;28;20022;-55
2023/06/21 09:26:55;;;;;;;13.48;5.13;;;;;;;13.24;74.56;101577.31;4993945;28;20037;-56
2023/06/21 09:29:21;;;;;;;14.65;4.70;;;;;;;13.17;74.93;101571.91;4993741;28;20126;-56
2023/06/21 09:31:47;;;;;;;16.77;4.68;;;;;;;13.19;75.16;101566.31;4993942;28;20030;-56
2023/06/21 09:34:14;;;;;;;18.48;4.95;;;;;;;13.16;75.18;101567.56;4993609;28;20383;-54
2023/06/21 09:36:41;;;;;;;16.52;5.07;;;;;;;13.05;75.54;101572.72;4993707;28;20022;-55
2023/06/21 09:39:11;;;;;;;14.18;4.32;;;;;;;13.08;75.40;101569.63;4993565;28;20057;-55
2023/06/21 09:41:39;;;;;;;21.73;5.72;;;;;;;13.05;75.26;101568.19;4993398;28;20399;-55
2023/06/21 09:44:05;;;;;;;13.38;5.07;;;;;;;12.98;75.85;101574.56;4993490;28;20032;-56
2023/06/21 09:46:31;;;;;;;17.40;5.15;;;;;;;13.11;75.34;101563.84;4993457;28;20438;-56
2023/06/21 09:49:08;;;;;;;13.48;4.78;;;;;;;12.99;76.00;101560.91;4993597;28;20062;-56
2023/06/21 09:51:42;;;;;;;15.13;4.78;;;;;;;13.20;75.62;101560.72;4993336;28;20030;-56
2023/06/21 09:54:08;;;;;;;20.35;5.53;;;;;;;13.23;75.19;101567.59;4993734;28;20105;-56
2023/06/21 09:56:37;;;;;;;22.95;5.88;;;;;;;12.89;76.38;101558.63;4997317;28;20429;-54
2023/06/21 09:59:12;;;;;;;20.35;5.45;;;;;;;12.94;76.64;101556.16;4997374;28;20054;-55
2023/06/21 10:01:44;;;;;;;18.83;5.05;;;;;;;13.06;76.27;101560.94;4997759;28;20026;-55
2023/06/21 10:04:13;;;;;;;15.65;4.80;;;;;;;12.91;77.08;101567.31;4997341;28;20031;-54
2023/06/21 10:06:50;;;;;;;16.75;4.97;;;;;;;12.84;77.29;101562.97;4997346;28;20069;-55
2023/06/21 10:09:17;;;;;;;19.67;6.00;;;;;;;12.75;77.51;101554.25;4997520;28;20375;-55
2023/06/21 10:11:44;;;;;;;16.75;5.65;;;;;;;12.74;78.22;101565.22;4997279;28;20065;-55
2023/06/21 10:14:29;;;;;;;16.63;4.68;;;;;;;12.90;77.19;101557.59;4997126;28;20018;-55
2023/06/21 10:16:56;;;;;;;13.50;4.80;;;;;;;12.73;78.46;101567.06;4997650;28;20036;-53
2023/06/21 10:19:26;;;;;;;13.25;4.55;;;;;;;12.78;78.27;101569.16;4997130;28;20077;-56
2023/06/21 10:22:13;;;;;;;18.90;5.07;;;;;;;12.54;79.43;101571.31;4997027;28;20026;-55
2023/06/21 10:24:44;;;;;;;17.08;5.18;;;;;;;12.82;78.81;101560.47;4997277;28;20033;-55
2023/06/21 10:27:11;;;;;;;21.90;5.50;;;;;;;12.69;78.78;101561.25;4996821;28;20023;-54
2023/06/21 10:29:42;;;;;;;19.05;5.10;;;;;;;12.53;79.34;101571.53;4997370;28;20030;-54
2023/06/21 10:32:09;;;;;;;14.48;5.32;;;;;;;12.66;78.86;101558.16;4996769;28;20027;-54
2023/06/21 10:34:55;;;;;;;13.60;4.50;;;;;;;12.55;79.13;101558.75;4996934;28;20037;-56
2023/06/21 10:37:25;;;;;;;16.92;5.07;;;;;;;12.41;79.63;101556.00;4996965;28;20034;-55
2023/06/21 10:39:54;;;;;;;17.08;5.28;;;;;;;12.49;79.15;101551.47;4996600;28;20018;-56
2023/06/21 10:42:22;;;;;;;16.75;5.28;;;;;;;12.70;77.90;101543.28;4996981;28;20018;-54
2023/06/21 10:44:51;;;;;;;16.45;4.68;;;;;;;12.54;78.33;101546.34;4996620;28;20037;-54
2023/06/21 10:47:20;;;;;;;19.05;4.85;;;;;;;12.46;78.56;101543.84;4996839;28;20052;-54
2023/06/21 10:49:48;;;;;;;15.43;4.65;;;;;;;12.52;78.01;101543.03;4996656;28;20445;-55
2023/06/21 10:52:16;;;;;;;18.52;4.97;;;;;;;12.48;78.39;101541.78;4996749;28;20061;-54
2023/06/21 10:54:44;;;;;;;16.85;5.38;;;;;;;12.55;78.10;101534.59;4996430;28;20022;-54
2023/06/21 10:57:13;;;;;;;15.00;5.53;;;;;;;12.52;78.11;101534.97;4996462;28;20057;-55
2023/06/21 10:59:40;;;;;;;23.20;4.90;;;;;;;12.36;78.86;101531.63;4996318;28;20026;-56
2023/06/21 11:02:08;;;;;;;15.73;4.93;;;;;;;12.36;78.80;101536.97;4996136;28;20403;-55
2023/06/21 11:05:11;;;;;;;20.60;5.20;;;;;;;12.30;79.23;101535.09;4996974;28;20034;-56
2023/06/21 11:07:37;;;;;;;11.82;4.38;;;;;;;12.47;78.34;101540.13;4994893;28;20026;-56
2023/06/21 11:10:07;;;;;;;15.15;4.78;;;;;;;12.27;78.74;101538.19;4996364;28;20033;-56
2023/06/21 11:12:36;;;;;;;19.70;5.18;;;;;;;12.49;77.88;101543.41;4995972;28;20077;-56
2023/06/21 11:15:05;;;;;;;17.70;4.55;;;;;;;12.48;77.56;101526.50;4996032;28;20440;-56
2023/06/21 11:17:35;;;;;;;13.88;5.05;;;;;;;12.45;78.08;101531.44;4995976;28;20379;-56
2023/06/21 11:20:20;;;;;;;13.57;4.38;;;;;;;12.35;78.22;101534.50;4996182;28;20041;-55
2023/06/21 11:23:08;;;;;;;18.73;4.80;;;;;;;12.45;77.67;101531.44;4995725;28;20030;-56
2023/06/21 11:25:38;;;;;;;16.13;5.00;;;;;;;12.40;77.69;101524.81;4995973;28;20035;-56
2023/06/21 11:28:19;;;;;;;16.80;4.72;;;;;;;12.34;77.91;101519.44;4995651;28;20110;-55